createdAt,value
2022-10-05T00:01:00.031Z,15.40
2022-10-05T00:03:30.585Z,15.40
2022-10-05T00:05:57.455Z,15.40
2022-10-05T00:08:25.283Z,15.40
2022-10-05T00:10:52.637Z,15.30
2022-10-05T00:13:20.612Z,15.30
2022-10-05T00:15:47.655Z,15.30
2022-10-05T00:18:15.959Z,15.30
2022-10-05T00:20:43.304Z,15.30
2022-10-05T00:23:14.630Z,15.30
2022-10-05T00:25:41.468Z,15.20
2022-10-05T00:28:12.506Z,15.10
2022-10-05T00:30:39.466Z,15.20
2022-10-05T00:33:06.244Z,15.10
2022-10-05T00:35:34.878Z,15.10
2022-10-05T00:38:01.916Z,15.10
2022-10-05T00:40:47.285Z,15.10
2022-10-05T00:43:23.344Z,15.00
2022-10-05T00:45:55.081Z,15.10
2022-10-05T00:48:44.999Z,15.00
2022-10-05T00:51:19.272Z,15.00
2022-10-05T00:53:46.083Z,15.00
2022-10-05T00:56:31.746Z,15.00
2022-10-05T00:59:04.878Z,14.80
2022-10-05T01:01:35.202Z,14.90
2022-10-05T01:04:05.170Z,14.90
2022-10-05T01:06:38.317Z,14.90
2022-10-05T01:09:11.172Z,14.80
2022-10-05T01:11:44.312Z,14.70
2022-10-05T01:14:30.627Z,14.70
2022-10-05T01:17:11.699Z,14.70
2022-10-05T01:19:38.499Z,14.70
2022-10-05T01:22:11.950Z,14.70
2022-10-05T01:24:38.799Z,14.70
2022-10-05T01:27:05.594Z,14.70
2022-10-05T01:29:49.621Z,14.60
2022-10-05T01:32:26.085Z,14.60
2022-10-05T01:35:04.331Z,14.60
2022-10-05T01:37:31.809Z,14.50
2022-10-05T01:39:58.554Z,14.60
2022-10-05T01:42:25.492Z,14.60
2022-10-05T01:44:55.351Z,14.50
2022-10-05T01:47:27.187Z,14.50
2022-10-05T01:50:01.221Z,14.50
2022-10-05T01:52:31.139Z,14.50
2022-10-05T01:54:58.105Z,14.50
2022-10-05T01:57:34.103Z,14.50
2022-10-05T02:00:11.978Z,14.50
2022-10-05T02:02:43.823Z,14.50
2022-10-05T02:05:16.605Z,14.40
2022-10-05T02:07:54.858Z,14.50
2022-10-05T02:10:40.939Z,14.40
2022-10-05T02:16:07.184Z,14.40
2022-10-05T02:18:38.755Z,14.20
2022-10-05T02:21:05.890Z,14.40
2022-10-05T02:23:36.460Z,14.40
2022-10-05T02:26:05.361Z,14.40
2022-10-05T02:28:42.789Z,14.40
2022-10-05T02:31:15.056Z,14.40
2022-10-05T02:33:41.978Z,14.40
2022-10-05T02:36:16.135Z,14.40
2022-10-05T02:38:53.509Z,14.40
2022-10-05T02:41:30.594Z,14.40
2022-10-05T02:44:04.455Z,14.40
2022-10-05T02:46:41.611Z,14.40
2022-10-05T02:49:12.761Z,14.40
2022-10-05T02:51:50.955Z,14.50
2022-10-05T02:54:29.845Z,14.50
2022-10-05T02:56:59.703Z,14.50
2022-10-05T02:59:32.365Z,14.40
2022-10-05T03:02:12.268Z,14.40
2022-10-05T03:04:49.913Z,14.40
2022-10-05T03:07:35.477Z,14.50
2022-10-05T03:10:07.690Z,14.40
2022-10-05T03:12:51.156Z,14.50
2022-10-05T03:15:29.281Z,14.50
2022-10-05T03:17:59.220Z,14.40
2022-10-05T03:20:25.968Z,14.40
2022-10-05T03:22:52.782Z,14.40
2022-10-05T03:25:27.319Z,14.40
2022-10-05T03:28:05.381Z,14.40
2022-10-05T03:30:37.781Z,14.40
2022-10-05T03:33:07.714Z,14.40
2022-10-05T03:35:34.531Z,14.40
2022-10-05T03:38:15.696Z,14.40
2022-10-05T03:40:49.222Z,14.40
2022-10-05T03:43:19.178Z,14.40
2022-10-05T03:46:06.722Z,14.40
2022-10-05T03:48:39.191Z,14.40
2022-10-05T03:51:15.394Z,14.50
2022-10-05T03:54:05.948Z,14.40
2022-10-05T03:56:46.631Z,14.50
2022-10-05T03:59:16.971Z,14.40
2022-10-05T04:01:47.931Z,14.50
2022-10-05T04:04:20.355Z,14.50
2022-10-05T04:06:49.226Z,14.50
2022-10-05T04:09:19.245Z,14.50
2022-10-05T04:11:57.645Z,14.50
2022-10-05T04:15:00.035Z,14.50
2022-10-05T04:17:32.854Z,14.50
2022-10-05T04:20:06.153Z,14.60
2022-10-05T04:22:59.836Z,14.50
2022-10-05T04:25:29.753Z,14.50
2022-10-05T04:28:17.253Z,14.50
2022-10-05T04:30:46.552Z,14.50
2022-10-05T04:33:15.874Z,14.50
2022-10-05T04:35:50.547Z,14.50
2022-10-05T04:38:20.728Z,14.50
2022-10-05T04:41:14.962Z,14.50
2022-10-05T04:43:45.816Z,14.50
2022-10-05T04:46:28.295Z,14.50
2022-10-05T04:49:13.859Z,14.50
2022-10-05T04:51:51.120Z,14.50
2022-10-05T04:54:24.682Z,14.40
2022-10-05T04:56:57.207Z,14.40
2022-10-05T04:59:30.226Z,14.40
2022-10-05T05:02:06.714Z,14.50
2022-10-05T05:04:54.287Z,14.40
2022-10-05T05:07:24.636Z,14.40
2022-10-05T05:09:54.816Z,14.40
2022-10-05T05:12:27.704Z,14.50
2022-10-05T05:14:54.633Z,14.40
2022-10-05T05:17:30.700Z,14.50
2022-10-05T05:19:57.490Z,14.20
2022-10-05T05:22:32.712Z,14.50
2022-10-05T05:25:04.436Z,14.40
2022-10-05T05:27:40.804Z,14.50
2022-10-05T05:30:15.446Z,14.50
2022-10-05T05:32:55.138Z,14.60
2022-10-05T05:35:31.047Z,14.60
2022-10-05T05:38:13.361Z,14.50
2022-10-05T05:41:00.382Z,14.50
2022-10-05T05:43:31.072Z,14.50
2022-10-05T05:46:05.247Z,14.50
2022-10-05T05:48:37.919Z,14.60
2022-10-05T05:51:38.123Z,14.50
2022-10-05T05:54:13.476Z,14.60
2022-10-05T05:56:42.684Z,14.70
2022-10-05T05:59:12.563Z,14.70
2022-10-05T06:01:44.651Z,14.80
2022-10-05T06:04:23.887Z,14.80
2022-10-05T06:06:52.284Z,14.80
2022-10-05T06:09:34.239Z,14.80
2022-10-05T06:12:10.083Z,14.80
2022-10-05T06:14:49.734Z,14.80
2022-10-05T06:17:24.694Z,14.80
2022-10-05T06:19:53.728Z,14.80
2022-10-05T06:22:42.045Z,14.90
2022-10-05T06:25:09.681Z,14.90
2022-10-05T06:27:37.509Z,14.90
2022-10-05T06:30:05.518Z,14.90
2022-10-05T06:32:37.394Z,14.90
2022-10-05T06:35:04.227Z,14.90
2022-10-05T06:37:44.808Z,14.90
2022-10-05T06:40:11.648Z,14.90
2022-10-05T06:42:39.004Z,15.00
2022-10-05T06:45:30.956Z,15.00
2022-10-05T06:48:19.196Z,15.00
2022-10-05T06:51:15.435Z,15.00
2022-10-05T06:54:08.108Z,15.00
2022-10-05T06:56:45.678Z,15.00
2022-10-05T06:59:22.054Z,15.00
2022-10-05T07:01:52.249Z,15.00
2022-10-05T07:04:26.111Z,15.10
2022-10-05T07:07:04.771Z,15.00
2022-10-05T07:09:42.852Z,15.00
2022-10-05T07:12:23.525Z,15.00
2022-10-05T07:14:50.627Z,14.70
2022-10-05T07:17:24.576Z,15.00
2022-10-05T07:19:57.860Z,15.00
2022-10-05T07:22:39.949Z,15.00
2022-10-05T07:25:13.358Z,15.00
2022-10-05T07:27:58.819Z,15.00
2022-10-05T07:30:25.771Z,15.00
2022-10-05T07:32:54.341Z,15.00
2022-10-05T07:35:54.457Z,15.00
2022-10-05T07:38:21.245Z,15.00
2022-10-05T07:40:51.951Z,15.00
2022-10-05T07:43:32.032Z,15.00
2022-10-05T07:46:13.334Z,15.10
2022-10-05T07:49:03.220Z,15.10
2022-10-05T07:51:37.442Z,15.10
2022-10-05T07:54:19.563Z,15.10
2022-10-05T07:56:50.024Z,15.10
2022-10-05T07:59:24.701Z,15.10
2022-10-05T08:01:57.142Z,15.10
2022-10-05T08:04:44.483Z,15.20
2022-10-05T08:07:16.948Z,15.20
2022-10-05T08:09:55.008Z,15.20
2022-10-05T08:12:33.850Z,15.30
2022-10-05T08:15:00.616Z,15.30
2022-10-05T08:17:36.466Z,15.40
2022-10-05T08:20:15.557Z,15.40
2022-10-05T08:22:46.003Z,15.50
2022-10-05T08:25:31.823Z,15.50
2022-10-05T08:28:04.768Z,15.60
2022-10-05T08:30:33.746Z,15.70
2022-10-05T08:33:10.257Z,15.70
2022-10-05T08:35:52.640Z,15.80
2022-10-05T08:38:23.789Z,16.20
2022-10-05T08:40:53.926Z,16.10
2022-10-05T08:43:35.402Z,16.10
2022-10-05T08:46:11.845Z,16.20
2022-10-05T08:48:41.975Z,16.30
2022-10-05T08:51:11.975Z,16.40
2022-10-05T08:53:41.782Z,16.40
2022-10-05T08:56:19.786Z,16.50
2022-10-05T08:58:53.492Z,16.50
2022-10-05T09:01:50.301Z,16.60
2022-10-05T09:04:17.586Z,16.70
2022-10-05T09:07:03.461Z,16.80
2022-10-05T09:09:39.381Z,16.90
2022-10-05T09:12:26.626Z,17.00
2022-10-05T09:15:23.835Z,17.10
2022-10-05T09:18:07.286Z,17.20
2022-10-05T09:20:43.253Z,17.30
2022-10-05T09:23:12.673Z,17.40
2022-10-05T09:25:56.284Z,17.40
2022-10-05T09:28:29.561Z,17.50
2022-10-05T09:31:15.423Z,17.60
2022-10-05T09:34:01.351Z,17.70
2022-10-05T09:36:32.023Z,17.80
2022-10-05T09:39:14.527Z,17.70
2022-10-05T09:41:45.235Z,17.80
2022-10-05T09:44:15.854Z,17.90
2022-10-05T09:46:51.255Z,17.90
2022-10-05T09:49:18.617Z,18.00
2022-10-05T09:51:59.225Z,18.10
2022-10-05T09:54:45.385Z,18.20
2022-10-05T09:57:31.468Z,18.30
2022-10-05T10:02:50.835Z,18.40
2022-10-05T10:05:38.984Z,18.40
2022-10-05T10:08:12.412Z,18.50
2022-10-05T10:10:54.906Z,18.60
2022-10-05T10:13:22.115Z,18.40
2022-10-05T10:16:04.286Z,18.60
2022-10-05T10:18:34.874Z,18.60
2022-10-05T10:21:21.211Z,18.80
2022-10-05T10:24:00.422Z,18.70
2022-10-05T10:26:37.293Z,18.80
2022-10-05T10:29:10.928Z,18.80
2022-10-05T10:32:01.925Z,18.90
2022-10-05T10:34:48.266Z,19.00
2022-10-05T10:37:24.880Z,19.00
2022-10-05T10:39:52.527Z,19.00
2022-10-05T10:42:29.610Z,19.20
2022-10-05T10:44:59.154Z,19.30
2022-10-05T10:47:32.767Z,19.40
2022-10-05T10:50:19.139Z,19.40
2022-10-05T10:53:05.736Z,19.50
2022-10-05T10:55:32.966Z,19.50
2022-10-05T10:58:15.040Z,19.60
2022-10-05T11:01:05.098Z,19.60
2022-10-05T11:03:47.842Z,19.80
2022-10-05T11:06:24.676Z,19.90
2022-10-05T11:09:02.167Z,20.00
2022-10-05T11:11:41.670Z,20.20
2022-10-05T11:14:27.436Z,20.20
2022-10-05T11:17:15.557Z,20.30
2022-10-05T11:19:59.624Z,20.40
2022-10-05T11:22:48.184Z,20.50
2022-10-05T11:25:23.315Z,20.60
2022-10-05T11:27:59.251Z,20.80
2022-10-05T11:30:26.849Z,20.80
2022-10-05T11:33:13.712Z,20.90
2022-10-05T11:35:43.616Z,21.00
2022-10-05T11:38:33.712Z,21.10
2022-10-05T11:41:23.550Z,21.20
2022-10-05T11:43:53.795Z,21.40
2022-10-05T11:46:23.880Z,21.50
2022-10-05T11:48:54.166Z,21.70
2022-10-05T11:51:34.996Z,21.70
2022-10-05T11:54:25.027Z,21.80
2022-10-05T11:57:08.359Z,22.00
2022-10-05T11:59:41.014Z,22.00
2022-10-05T12:02:27.313Z,22.30
2022-10-05T12:05:10.864Z,22.30
2022-10-05T12:08:00.978Z,22.40
2022-10-05T12:10:43.289Z,22.50
2022-10-05T12:13:27.456Z,22.70
2022-10-05T12:15:56.873Z,22.90
2022-10-05T12:18:30.324Z,22.90
2022-10-05T12:21:02.405Z,23.00
2022-10-05T12:23:37.212Z,23.10
2022-10-05T12:26:06.707Z,23.10
2022-10-05T12:28:39.885Z,23.20
2022-10-05T12:31:15.899Z,23.30
2022-10-05T12:33:47.338Z,23.30
2022-10-05T12:36:15.960Z,23.40
2022-10-05T12:38:52.080Z,23.60
2022-10-05T12:41:25.175Z,23.70
2022-10-05T12:43:58.149Z,23.80
2022-10-05T12:46:31.166Z,23.80
2022-10-05T12:49:04.312Z,23.80
2022-10-05T12:51:43.527Z,23.90
2022-10-05T12:54:15.649Z,23.90
2022-10-05T12:56:49.523Z,23.90
2022-10-05T12:59:28.706Z,23.90
2022-10-05T13:02:14.559Z,24.00
2022-10-05T13:04:57.070Z,24.00
2022-10-05T13:07:46.583Z,24.00
2022-10-05T13:10:23.693Z,24.10
2022-10-05T13:12:53.976Z,24.10
2022-10-05T13:15:20.773Z,24.20
2022-10-05T13:18:06.425Z,24.20
2022-10-05T13:20:51.690Z,24.40
2022-10-05T13:23:25.177Z,24.50
2022-10-05T13:26:03.678Z,24.60
2022-10-05T13:28:37.407Z,24.60
2022-10-05T13:31:15.517Z,24.60
2022-10-05T13:34:03.349Z,24.70
2022-10-05T13:36:33.485Z,24.70
2022-10-05T13:39:08.686Z,24.70
2022-10-05T13:41:35.683Z,24.70
2022-10-05T13:44:38.161Z,24.70
2022-10-05T13:47:38.817Z,24.70
2022-10-05T13:50:14.867Z,24.60
2022-10-05T13:52:42.334Z,24.60
2022-10-05T13:55:28.203Z,24.60
2022-10-05T13:58:14.052Z,24.60
2022-10-05T14:00:46.640Z,24.50
2022-10-05T14:03:34.903Z,24.40
2022-10-05T14:06:05.653Z,24.30
2022-10-05T14:08:33.950Z,24.30
2022-10-05T14:11:20.333Z,24.30
2022-10-05T14:13:47.810Z,24.20
2022-10-05T14:16:24.934Z,24.20
2022-10-05T14:18:53.902Z,24.20
2022-10-05T14:21:25.071Z,24.20
2022-10-05T14:23:52.278Z,24.20
2022-10-05T14:26:35.762Z,24.10
2022-10-05T14:29:15.471Z,24.20
2022-10-05T14:31:58.990Z,24.30
2022-10-05T14:34:26.838Z,24.40
2022-10-05T14:37:19.851Z,24.50
2022-10-05T14:39:50.153Z,24.60
2022-10-05T14:42:19.053Z,24.70
2022-10-05T14:44:46.694Z,24.80
2022-10-05T14:47:20.801Z,24.90
2022-10-05T14:50:10.802Z,25.00
2022-10-05T14:52:38.645Z,25.00
2022-10-05T14:55:11.099Z,25.10
2022-10-05T14:57:47.153Z,25.20
2022-10-05T15:00:16.589Z,25.20
2022-10-05T15:03:00.309Z,25.40
2022-10-05T15:05:31.554Z,25.50
2022-10-05T15:08:08.667Z,25.60
2022-10-05T15:10:49.748Z,25.70
2022-10-05T15:13:19.178Z,25.70
2022-10-05T15:15:57.425Z,25.80
2022-10-05T15:18:31.841Z,25.90
2022-10-05T15:21:09.051Z,25.90
2022-10-05T15:23:49.848Z,25.90
2022-10-05T15:26:19.831Z,25.90
2022-10-05T15:28:51.602Z,25.90
2022-10-05T15:31:33.468Z,25.90
2022-10-05T15:34:04.119Z,25.90
2022-10-05T15:36:35.488Z,25.80
2022-10-05T15:39:08.306Z,25.80
2022-10-05T15:41:47.115Z,25.60
2022-10-05T15:44:35.474Z,25.40
2022-10-05T15:47:05.938Z,25.20
2022-10-05T15:49:43.205Z,25.00
2022-10-05T15:52:19.941Z,24.80
2022-10-05T15:55:05.677Z,24.60
2022-10-05T15:57:38.915Z,24.40
2022-10-05T16:00:12.977Z,24.30
2022-10-05T16:02:40.088Z,24.10
2022-10-05T16:05:16.140Z,24.00
2022-10-05T16:08:08.510Z,23.80
2022-10-05T16:10:38.941Z,23.80
2022-10-05T16:13:06.575Z,23.60
2022-10-05T16:15:33.999Z,23.50
2022-10-05T16:18:01.181Z,23.40
2022-10-05T16:20:47.306Z,23.30
2022-10-05T16:23:33.426Z,23.20
2022-10-05T16:26:15.716Z,23.10
2022-10-05T16:29:03.089Z,22.90
2022-10-05T16:31:49.249Z,22.80
2022-10-05T16:34:20.057Z,22.80
2022-10-05T16:36:55.562Z,22.60
2022-10-05T16:39:34.984Z,22.60
2022-10-05T16:42:06.861Z,22.50
2022-10-05T16:44:57.768Z,22.30
2022-10-05T16:47:31.619Z,22.30
2022-10-05T16:50:08.948Z,22.20
2022-10-05T16:52:38.620Z,22.20
2022-10-05T16:55:12.676Z,22.10
2022-10-05T16:57:44.232Z,22.00
2022-10-05T17:00:15.925Z,22.40
2022-10-05T17:02:47.086Z,21.90
2022-10-05T17:05:35.612Z,21.90
2022-10-05T17:08:08.867Z,21.80
2022-10-05T17:10:51.183Z,21.70
2022-10-05T17:13:37.506Z,21.70
2022-10-05T17:16:04.913Z,21.70
2022-10-05T17:18:50.490Z,21.60
2022-10-05T17:21:30.993Z,21.50
2022-10-05T17:24:02.159Z,21.50
2022-10-05T17:26:33.169Z,21.40
2022-10-05T17:29:08.204Z,21.40
2022-10-05T17:31:55.030Z,21.30
2022-10-05T17:34:26.629Z,21.20
2022-10-05T17:44:16.329Z,21.10
2022-10-05T17:47:38.895Z,21.00
2022-10-05T17:50:24.505Z,21.00
2022-10-05T17:53:53.413Z,20.90
2022-10-05T17:56:22.133Z,20.60
2022-10-05T17:58:54.478Z,20.80
2022-10-05T18:01:32.561Z,20.80
2022-10-05T18:04:11.779Z,20.70
2022-10-05T18:07:00.043Z,20.60
2022-10-05T18:09:27.719Z,20.60
2022-10-05T18:12:15.314Z,20.50
2022-10-05T18:14:57.697Z,20.50
2022-10-05T18:17:36.876Z,20.40
2022-10-05T18:20:22.541Z,20.40
2022-10-05T18:22:51.126Z,20.30
2022-10-05T18:25:18.495Z,20.30
2022-10-05T18:27:45.366Z,20.30
2022-10-05T18:30:18.342Z,20.20
2022-10-05T18:33:23.515Z,20.20
2022-10-05T18:36:03.530Z,20.20
2022-10-05T18:38:43.449Z,20.20
2022-10-05T18:41:26.816Z,19.80
2022-10-05T18:44:14.879Z,20.10
2022-10-05T18:46:48.087Z,20.10
2022-10-05T18:49:30.443Z,20.10
2022-10-05T18:52:29.779Z,20.10
2022-10-05T18:55:05.566Z,20.10
2022-10-05T18:57:34.369Z,20.30
2022-10-05T19:00:04.406Z,20.00
2022-10-05T19:02:43.065Z,20.00
2022-10-05T19:05:42.969Z,19.90
2022-10-05T19:08:15.421Z,19.90
2022-10-05T19:10:45.839Z,19.90
2022-10-05T19:13:46.773Z,19.90
2022-10-05T19:16:20.212Z,20.00
2022-10-05T19:19:00.123Z,19.90
2022-10-05T19:21:35.663Z,20.00
2022-10-05T19:24:05.398Z,20.00
2022-10-05T19:26:41.672Z,19.90
2022-10-05T19:29:27.215Z,19.90
2022-10-05T19:32:05.394Z,19.90
2022-10-05T19:34:44.724Z,19.90
2022-10-05T19:37:31.045Z,19.90
2022-10-05T19:40:07.235Z,19.80
2022-10-05T19:42:45.732Z,19.70
2022-10-05T19:45:12.500Z,19.80
2022-10-05T19:47:42.278Z,19.70
2022-10-05T19:50:20.159Z,19.70
2022-10-05T19:52:50.264Z,19.70
2022-10-05T19:55:26.608Z,19.60
2022-10-05T19:57:54.814Z,19.50
2022-10-05T20:00:26.205Z,19.60
2022-10-05T20:03:12.147Z,19.50
2022-10-05T20:05:39.485Z,19.50
2022-10-05T20:08:06.612Z,19.40
2022-10-05T20:10:33.770Z,19.40
2022-10-05T20:13:01.592Z,19.40
2022-10-05T20:15:48.552Z,19.30
2022-10-05T20:18:53.110Z,19.30
2022-10-05T20:21:59.985Z,19.20
2022-10-05T20:24:29.778Z,19.20
2022-10-05T20:27:06.470Z,19.10
2022-10-05T20:29:33.546Z,19.00
2022-10-05T20:32:00.531Z,19.00
2022-10-05T20:34:27.414Z,19.00
2022-10-05T20:36:54.141Z,18.90
2022-10-05T20:39:21.448Z,18.90
2022-10-05T20:41:48.482Z,19.00
2022-10-05T20:44:15.328Z,18.80
2022-10-05T20:46:42.182Z,18.80
2022-10-05T20:49:11.089Z,18.80
2022-10-05T20:51:38.597Z,18.70
2022-10-05T20:54:05.862Z,18.70
2022-10-05T20:56:33.012Z,18.60
2022-10-05T20:58:59.985Z,18.60
2022-10-05T21:01:27.621Z,18.60
2022-10-05T21:03:54.671Z,18.50
2022-10-05T21:06:21.882Z,18.50
2022-10-05T21:08:51.360Z,18.50
2022-10-05T21:11:18.274Z,18.60
2022-10-05T21:13:45.389Z,18.50
2022-10-05T21:16:17.529Z,18.50
2022-10-05T21:18:46.939Z,18.40
2022-10-05T21:21:14.916Z,18.40
2022-10-05T21:23:41.725Z,18.40
2022-10-05T21:26:08.479Z,18.30
2022-10-05T21:28:35.353Z,18.30
2022-10-05T21:31:02.209Z,18.30
2022-10-05T21:33:29.438Z,18.30
2022-10-05T21:35:56.349Z,18.30
2022-10-05T21:38:23.353Z,18.10
2022-10-05T21:40:50.150Z,18.10
2022-10-05T21:43:17.233Z,18.10
2022-10-05T21:45:45.389Z,18.10
2022-10-05T21:48:13.596Z,18.00
2022-10-05T21:50:40.806Z,18.00
2022-10-05T21:53:10.327Z,18.00
2022-10-05T21:55:39.370Z,18.00
2022-10-05T21:58:06.104Z,18.00
2022-10-05T22:00:33.020Z,17.90
2022-10-05T22:02:59.784Z,17.90
2022-10-05T22:05:26.676Z,17.90
2022-10-05T22:07:53.544Z,17.90
2022-10-05T22:10:20.553Z,17.90
2022-10-05T22:12:47.465Z,17.80
2022-10-05T22:15:14.749Z,17.80
2022-10-05T22:17:42.222Z,17.70
2022-10-05T22:20:12.954Z,17.70
2022-10-05T22:22:39.831Z,17.70
2022-10-05T22:25:06.726Z,17.60
2022-10-05T22:27:33.619Z,17.90
2022-10-05T22:30:01.340Z,17.60
2022-10-05T22:32:28.098Z,17.60
2022-10-05T22:34:54.852Z,17.50
2022-10-05T22:37:21.814Z,17.60
2022-10-05T22:39:48.950Z,17.60
2022-10-05T22:42:15.784Z,17.60
2022-10-05T22:44:42.540Z,17.50
2022-10-05T22:47:09.352Z,17.50
2022-10-05T22:49:36.086Z,17.50
2022-10-05T22:52:02.920Z,17.40
2022-10-05T22:54:31.743Z,17.40
2022-10-05T22:57:00.163Z,17.40
2022-10-05T22:59:27.043Z,17.40
2022-10-05T23:01:53.967Z,17.40
2022-10-05T23:04:20.810Z,17.30
2022-10-05T23:06:47.864Z,17.30
2022-10-05T23:09:14.604Z,17.30
2022-10-05T23:11:41.385Z,17.30
2022-10-05T23:14:08.117Z,17.30
2022-10-05T23:16:35.002Z,17.30
2022-10-05T23:19:01.811Z,17.20
2022-10-05T23:21:30.231Z,17.20
2022-10-05T23:23:57.053Z,17.20
2022-10-05T23:26:24.472Z,17.20
2022-10-05T23:28:51.279Z,17.20
2022-10-05T23:31:19.913Z,17.10
2022-10-05T23:33:46.946Z,17.10
2022-10-05T23:36:17.980Z,17.10
2022-10-05T23:38:44.783Z,17.10
2022-10-05T23:41:11.721Z,17.10
2022-10-05T23:43:39.009Z,17.10
2022-10-05T23:46:06.747Z,17.10
2022-10-05T23:48:33.978Z,17.10
2022-10-05T23:51:00.765Z,17.00
2022-10-05T23:53:27.591Z,17.00
2022-10-05T23:55:54.638Z,17.00
2022-10-05T23:58:21.788Z,16.90
